sensor_id;sensor_type;location;lat;lon;timestamp;pressure;altitude;pressure_sealevel;temperature;humidity
37778;BME280;23615;51.506;7.678;2024-02-21T00:00:47;100699.78;;;8.54;100.00
37778;BME280;23615;51.506;7.678;2024-02-21T00:03:13;100693.22;;;8.50;100.00
37778;BME280;23615;51.506;7.678;2024-02-21T00:05:38;100697.19;;;8.60;100.00
37778;BME280;23615;51.506;7.678;2024-02-21T00:08:04;100691.84;;;8.60;100.00
37778;BME280;23615;51.506;7.678;2024-02-21T00:10:29;100697.63;;;8.64;100.00
37778;BME280;23615;51.506;7.678;2024-02-21T00:12:57;100700.69;;;8.68;100.00
37778;BME280;23615;51.506;7.678;2024-02-21T00:15:22;100694.13;;;8.63;100.00
37778;BME280;23615;51.506;7.678;2024-02-21T00:17:47;100684.88;;;8.59;100.00
37778;BME280;23615;51.506;7.678;2024-02-21T00:20:13;100690.06;;;8.68;100.00
37778;BME280;23615;51.506;7.678;2024-02-21T00:22:39;100681.25;;;8.39;100.00
37778;BME280;23615;51.506;7.678;2024-02-21T00:25:04;100677.88;;;8.31;100.00
37778;BME280;23615;51.506;7.678;2024-02-21T00:27:29;100672.84;;;8.63;100.00
37778;BME280;23615;51.506;7.678;2024-02-21T00:29:56;100662.44;;;8.69;100.00
37778;BME280;23615;51.506;7.678;2024-02-21T00:32:21;100665.25;;;8.60;100.00
37778;BME280;23615;51.506;7.678;2024-02-21T00:34:46;100659.56;;;8.63;100.00
37778;BME280;23615;51.506;7.678;2024-02-21T00:37:11;100651.84;;;8.47;100.00
37778;BME280;23615;51.506;7.678;2024-02-21T00:39:37;100653.03;;;8.38;100.00
37778;BME280;23615;51.506;7.678;2024-02-21T00:42:02;100643.94;;;8.54;100.00
37778;BME280;23615;51.506;7.678;2024-02-21T00:44:28;100629.13;;;8.73;100.00
37778;BME280;23615;51.506;7.678;2024-02-21T00:46:53;100632.72;;;8.58;100.00
37778;BME280;23615;51.506;7.678;2024-02-21T00:49:19;100635.22;;;8.67;100.00
37778;BME280;23615;51.506;7.678;2024-02-21T00:51:44;100615.75;;;8.66;100.00
37778;BME280;23615;51.506;7.678;2024-02-21T00:54:09;100622.31;;;8.63;100.00
37778;BME280;23615;51.506;7.678;2024-02-21T00:56:34;100614.88;;;8.52;100.00
37778;BME280;23615;51.506;7.678;2024-02-21T00:59:00;100616.00;;;8.65;100.00
37778;BME280;23615;51.506;7.678;2024-02-21T01:01:25;100614.91;;;8.59;100.00
37778;BME280;23615;51.506;7.678;2024-02-21T01:03:51;100620.84;;;8.54;100.00
37778;BME280;23615;51.506;7.678;2024-02-21T01:06:20;100614.56;;;8.69;100.00
37778;BME280;23615;51.506;7.678;2024-02-21T01:08:46;100612.41;;;8.51;100.00
37778;BME280;23615;51.506;7.678;2024-02-21T01:11:13;100612.13;;;8.39;100.00
37778;BME280;23615;51.506;7.678;2024-02-21T01:13:39;100613.22;;;8.45;100.00
37778;BME280;23615;51.506;7.678;2024-02-21T01:16:04;100599.81;;;8.32;100.00
37778;BME280;23615;51.506;7.678;2024-02-21T01:18:31;100598.84;;;8.39;100.00
37778;BME280;23615;51.506;7.678;2024-02-21T01:20:57;100600.72;;;8.45;100.00
37778;BME280;23615;51.506;7.678;2024-02-21T01:23:22;100590.81;;;8.67;100.00
37778;BME280;23615;51.506;7.678;2024-02-21T01:25:47;100587.44;;;8.45;100.00
37778;BME280;23615;51.506;7.678;2024-02-21T01:28:13;100581.97;;;8.53;100.00
37778;BME280;23615;51.506;7.678;2024-02-21T01:30:38;100584.94;;;8.37;100.00
37778;BME280;23615;51.506;7.678;2024-02-21T01:33:03;100582.88;;;8.39;100.00
37778;BME280;23615;51.506;7.678;2024-02-21T01:35:29;100578.03;;;8.49;100.00
37778;BME280;23615;51.506;7.678;2024-02-21T01:37:54;100574.81;;;8.54;100.00
37778;BME280;23615;51.506;7.678;2024-02-21T01:40:19;100559.25;;;8.57;100.00
37778;BME280;23615;51.506;7.678;2024-02-21T01:42:44;100558.84;;;8.54;100.00
37778;BME280;23615;51.506;7.678;2024-02-21T01:45:10;100555.38;;;8.60;100.00
37778;BME280;23615;51.506;7.678;2024-02-21T01:47:36;100548.03;;;8.62;100.00
37778;BME280;23615;51.506;7.678;2024-02-21T01:50:02;100558.03;;;8.53;100.00
37778;BME280;23615;51.506;7.678;2024-02-21T01:52:29;100548.50;;;8.38;100.00
37778;BME280;23615;51.506;7.678;2024-02-21T01:54:56;100553.81;;;8.38;100.00
37778;BME280;23615;51.506;7.678;2024-02-21T01:57:22;100554.28;;;8.41;100.00
37778;BME280;23615;51.506;7.678;2024-02-21T01:59:48;100541.63;;;8.50;100.00
37778;BME280;23615;51.506;7.678;2024-02-21T02:02:13;100546.84;;;8.65;100.00
37778;BME280;23615;51.506;7.678;2024-02-21T02:04:39;100542.69;;;8.55;100.00
37778;BME280;23615;51.506;7.678;2024-02-21T02:07:06;100551.09;;;8.66;100.00
37778;BME280;23615;51.506;7.678;2024-02-21T02:09:32;100546.84;;;8.65;100.00
37778;BME280;23615;51.506;7.678;2024-02-21T02:11:57;100538.88;;;8.71;100.00
37778;BME280;23615;51.506;7.678;2024-02-21T02:14:24;100533.31;;;8.66;100.00
37778;BME280;23615;51.506;7.678;2024-02-21T02:16:50;100541.53;;;8.78;100.00
37778;BME280;23615;51.506;7.678;2024-02-21T02:19:15;100535.19;;;8.72;100.00
37778;BME280;23615;51.506;7.678;2024-02-21T02:21:43;100535.41;;;8.77;100.00
37778;BME280;23615;51.506;7.678;2024-02-21T02:24:10;100536.59;;;8.68;100.00
37778;BME280;23615;51.506;7.678;2024-02-21T02:26:35;100528.03;;;8.73;100.00
37778;BME280;23615;51.506;7.678;2024-02-21T02:29:04;100515.56;;;8.73;100.00
37778;BME280;23615;51.506;7.678;2024-02-21T02:31:29;100505.03;;;8.52;100.00
37778;BME280;23615;51.506;7.678;2024-02-21T02:33:54;100515.94;;;8.70;100.00
37778;BME280;23615;51.506;7.678;2024-02-21T02:36:20;100505.06;;;8.58;100.00
37778;BME280;23615;51.506;7.678;2024-02-21T02:38:45;100497.91;;;8.59;100.00
37778;BME280;23615;51.506;7.678;2024-02-21T02:41:10;100493.56;;;8.51;100.00
37778;BME280;23615;51.506;7.678;2024-02-21T02:43:36;100486.69;;;8.63;100.00
37778;BME280;23615;51.506;7.678;2024-02-21T02:46:02;100491.75;;;8.65;100.00
37778;BME280;23615;51.506;7.678;2024-02-21T02:48:27;100490.19;;;8.77;100.00
37778;BME280;23615;51.506;7.678;2024-02-21T02:50:53;100479.72;;;8.69;100.00
37778;BME280;23615;51.506;7.678;2024-02-21T02:53:18;100474.19;;;8.64;100.00
37778;BME280;23615;51.506;7.678;2024-02-21T02:55:43;100459.06;;;8.65;100.00
37778;BME280;23615;51.506;7.678;2024-02-21T02:58:08;100452.78;;;8.38;100.00
37778;BME280;23615;51.506;7.678;2024-02-21T03:00:34;100445.44;;;8.33;100.00
37778;BME280;23615;51.506;7.678;2024-02-21T03:03:01;100454.03;;;8.35;100.00
37778;BME280;23615;51.506;7.678;2024-02-21T03:05:29;100464.72;;;8.48;100.00
37778;BME280;23615;51.506;7.678;2024-02-21T03:07:54;100451.56;;;8.34;100.00
37778;BME280;23615;51.506;7.678;2024-02-21T03:10:19;100443.94;;;8.24;100.00
37778;BME280;23615;51.506;7.678;2024-02-21T03:12:44;100447.91;;;8.41;100.00
37778;BME280;23615;51.506;7.678;2024-02-21T03:15:10;100444.31;;;8.21;100.00
37778;BME280;23615;51.506;7.678;2024-02-21T03:17:35;100436.63;;;8.33;100.00
37778;BME280;23615;51.506;7.678;2024-02-21T03:20:04;100431.47;;;8.24;100.00
37778;BME280;23615;51.506;7.678;2024-02-21T03:22:31;100428.38;;;8.21;100.00
37778;BME280;23615;51.506;7.678;2024-02-21T03:24:56;100438.78;;;8.16;100.00
37778;BME280;23615;51.506;7.678;2024-02-21T03:27:21;100442.28;;;8.16;100.00
37778;BME280;23615;51.506;7.678;2024-02-21T03:29:47;100443.66;;;8.06;100.00
37778;BME280;23615;51.506;7.678;2024-02-21T03:32:12;100440.13;;;8.33;100.00
37778;BME280;23615;51.506;7.678;2024-02-21T03:34:38;100436.59;;;8.26;100.00
37778;BME280;23615;51.506;7.678;2024-02-21T03:37:03;100436.41;;;8.27;100.00
37778;BME280;23615;51.506;7.678;2024-02-21T03:39:31;100428.78;;;8.18;100.00
37778;BME280;23615;51.506;7.678;2024-02-21T03:41:57;100430.44;;;8.19;100.00
37778;BME280;23615;51.506;7.678;2024-02-21T03:44:23;100423.50;;;8.24;100.00
37778;BME280;23615;51.506;7.678;2024-02-21T03:46:48;100425.31;;;8.24;100.00
37778;BME280;23615;51.506;7.678;2024-02-21T03:49:13;100414.34;;;8.34;100.00
37778;BME280;23615;51.506;7.678;2024-02-21T03:51:39;100414.56;;;8.39;100.00
37778;BME280;23615;51.506;7.678;2024-02-21T03:54:04;100407.97;;;8.28;100.00
37778;BME280;23615;51.506;7.678;2024-02-21T03:56:29;100415.44;;;8.59;100.00
37778;BME280;23615;51.506;7.678;2024-02-21T03:58:55;100409.66;;;8.36;100.00
37778;BME280;23615;51.506;7.678;2024-02-21T04:01:20;100425.47;;;8.57;100.00
37778;BME280;23615;51.506;7.678;2024-02-21T04:03:45;100432.63;;;8.56;100.00
37778;BME280;23615;51.506;7.678;2024-02-21T04:06:11;100431.63;;;8.64;100.00
37778;BME280;23615;51.506;7.678;2024-02-21T04:08:37;100426.72;;;8.68;100.00
37778;BME280;23615;51.506;7.678;2024-02-21T04:11:02;100425.50;;;8.63;100.00
37778;BME280;23615;51.506;7.678;2024-02-21T04:13:28;100433.69;;;8.69;100.00
37778;BME280;23615;51.506;7.678;2024-02-21T04:15:53;100434.69;;;8.68;100.00
37778;BME280;23615;51.506;7.678;2024-02-21T04:18:18;100435.50;;;8.55;100.00
37778;BME280;23615;51.506;7.678;2024-02-21T04:20:44;100427.91;;;8.45;100.00
37778;BME280;23615;51.506;7.678;2024-02-21T04:23:09;100425.88;;;8.60;100.00
37778;BME280;23615;51.506;7.678;2024-02-21T04:25:34;100425.88;;;8.60;100.00
37778;BME280;23615;51.506;7.678;2024-02-21T04:28:00;100432.03;;;8.54;100.00
37778;BME280;23615;51.506;7.678;2024-02-21T04:30:25;100420.56;;;8.54;100.00
37778;BME280;23615;51.506;7.678;2024-02-21T04:32:51;100427.09;;;8.51;100.00
37778;BME280;23615;51.506;7.678;2024-02-21T04:35:16;100433.44;;;8.50;100.00
37778;BME280;23615;51.506;7.678;2024-02-21T04:37:41;100431.59;;;8.51;100.00
37778;BME280;23615;51.506;7.678;2024-02-21T04:40:07;100427.94;;;8.58;100.00
37778;BME280;23615;51.506;7.678;2024-02-21T04:42:33;100434.13;;;8.72;100.00
37778;BME280;23615;51.506;7.678;2024-02-21T04:44:58;100431.22;;;8.60;100.00
37778;BME280;23615;51.506;7.678;2024-02-21T04:47:23;100426.28;;;8.57;100.00
37778;BME280;23615;51.506;7.678;2024-02-21T04:49:50;100427.94;;;8.65;100.00
37778;BME280;23615;51.506;7.678;2024-02-21T04:52:15;100430.81;;;8.63;100.00
37778;BME280;23615;51.506;7.678;2024-02-21T04:54:40;100436.97;;;8.64;100.00
37778;BME280;23615;51.506;7.678;2024-02-21T04:57:06;100425.88;;;8.60;100.00
37778;BME280;23615;51.506;7.678;2024-02-21T04:59:31;100426.25;;;8.44;100.00
37778;BME280;23615;51.506;7.678;2024-02-21T05:01:57;100427.13;;;8.65;99.88
37778;BME280;23615;51.506;7.678;2024-02-21T05:04:23;100419.16;;;8.65;99.76
37778;BME280;23615;51.506;7.678;2024-02-21T05:06:49;100422.47;;;8.73;99.47
37778;BME280;23615;51.506;7.678;2024-02-21T05:09:14;100425.88;;;8.54;100.00
37778;BME280;23615;51.506;7.678;2024-02-21T05:11:40;100422.22;;;8.61;99.47
37778;BME280;23615;51.506;7.678;2024-02-21T05:14:05;100415.28;;;8.74;99.05
37778;BME280;23615;51.506;7.678;2024-02-21T05:16:31;100414.03;;;8.70;98.55
37778;BME280;23615;51.506;7.678;2024-02-21T05:18:56;100412.41;;;8.69;98.32
37778;BME280;23615;51.506;7.678;2024-02-21T05:21:23;100413.63;;;8.59;97.63
37778;BME280;23615;51.506;7.678;2024-02-21T05:23:49;100416.91;;;8.75;97.59
37778;BME280;23615;51.506;7.678;2024-02-21T05:26:24;100418.97;;;8.73;97.72
37778;BME280;23615;51.506;7.678;2024-02-21T05:28:49;100412.00;;;8.72;98.20
37778;BME280;23615;51.506;7.678;2024-02-21T05:31:15;100406.84;;;8.50;98.42
37778;BME280;23615;51.506;7.678;2024-02-21T05:33:41;100402.78;;;8.61;98.87
37778;BME280;23615;51.506;7.678;2024-02-21T05:36:07;100404.59;;;8.54;98.75
37778;BME280;23615;51.506;7.678;2024-02-21T05:38:32;100399.69;;;8.51;99.07
37778;BME280;23615;51.506;7.678;2024-02-21T05:40:57;100386.44;;;8.64;99.06
37778;BME280;23615;51.506;7.678;2024-02-21T05:43:23;100390.88;;;8.57;99.48
37778;BME280;23615;51.506;7.678;2024-02-21T05:45:48;100381.09;;;8.64;98.61
37778;BME280;23615;51.506;7.678;2024-02-21T05:48:13;100376.94;;;8.42;99.38
37778;BME280;23615;51.506;7.678;2024-02-21T05:50:39;100380.34;;;8.29;100.00
37778;BME280;23615;51.506;7.678;2024-02-21T05:53:04;100384.97;;;8.55;98.64
37778;BME280;23615;51.506;7.678;2024-02-21T05:55:29;100377.00;;;8.61;98.61
37778;BME280;23615;51.506;7.678;2024-02-21T05:57:55;100373.13;;;8.64;97.47
37778;BME280;23615;51.506;7.678;2024-02-21T06:00:20;100374.53;;;8.53;97.22
37778;BME280;23615;51.506;7.678;2024-02-21T06:02:46;100371.50;;;8.63;97.95
37778;BME280;23615;51.506;7.678;2024-02-21T06:05:11;100366.94;;;8.57;97.25
37778;BME280;23615;51.506;7.678;2024-02-21T06:07:36;100367.19;;;8.55;97.42
37778;BME280;23615;51.506;7.678;2024-02-21T06:10:02;100364.09;;;8.52;97.28
37778;BME280;23615;51.506;7.678;2024-02-21T06:12:27;100351.56;;;8.39;98.21
37778;BME280;23615;51.506;7.678;2024-02-21T06:14:53;100349.88;;;8.18;99.37
37778;BME280;23615;51.506;7.678;2024-02-21T06:17:18;100344.94;;;8.15;100.00
37778;BME280;23615;51.506;7.678;2024-02-21T06:19:44;100344.84;;;8.37;99.40
37778;BME280;23615;51.506;7.678;2024-02-21T06:22:10;100345.47;;;8.52;98.48
37778;BME280;23615;51.506;7.678;2024-02-21T06:24:36;100342.81;;;8.45;98.65
37778;BME280;23615;51.506;7.678;2024-02-21T06:27:04;100343.66;;;8.59;98.18
37778;BME280;23615;51.506;7.678;2024-02-21T06:29:31;100340.53;;;8.36;99.56
37778;BME280;23615;51.506;7.678;2024-02-21T06:31:56;100337.06;;;8.35;98.76
37778;BME280;23615;51.506;7.678;2024-02-21T06:34:22;100336.28;;;8.54;98.17
37778;BME280;23615;51.506;7.678;2024-02-21T06:36:47;100335.44;;;8.41;98.69
37778;BME280;23615;51.506;7.678;2024-02-21T06:39:12;100331.13;;;8.33;99.50
37778;BME280;23615;51.506;7.678;2024-02-21T06:41:37;100319.22;;;8.22;99.62
37778;BME280;23615;51.506;7.678;2024-02-21T06:44:03;100311.22;;;8.22;99.74
37778;BME280;23615;51.506;7.678;2024-02-21T06:46:29;100304.69;;;8.18;99.05
37778;BME280;23615;51.506;7.678;2024-02-21T06:48:55;100299.53;;;8.10;100.00
37778;BME280;23615;51.506;7.678;2024-02-21T06:51:23;100296.69;;;8.12;100.00
37778;BME280;23615;51.506;7.678;2024-02-21T06:53:48;100304.53;;;8.33;99.70
37778;BME280;23615;51.506;7.678;2024-02-21T06:56:13;100292.63;;;8.22;99.29
37778;BME280;23615;51.506;7.678;2024-02-21T06:58:39;100296.50;;;8.20;99.63
37778;BME280;23615;51.506;7.678;2024-02-21T07:01:04;100290.34;;;8.19;100.00
37778;BME280;23615;51.506;7.678;2024-02-21T07:03:29;100290.78;;;8.16;99.20
37778;BME280;23615;51.506;7.678;2024-02-21T07:05:55;100297.38;;;8.34;99.05
37778;BME280;23615;51.506;7.678;2024-02-21T07:08:20;100302.44;;;8.15;99.81
37778;BME280;23615;51.506;7.678;2024-02-21T07:10:45;100303.06;;;8.17;100.00
37778;BME280;23615;51.506;7.678;2024-02-21T07:13:10;100304.44;;;8.07;99.80
37778;BME280;23615;51.506;7.678;2024-02-21T07:15:36;100297.94;;;8.22;98.91
37778;BME280;23615;51.506;7.678;2024-02-21T07:18:03;100299.78;;;8.28;98.05
37778;BME280;23615;51.506;7.678;2024-02-21T07:20:28;100291.47;;;8.45;97.65
37778;BME280;23615;51.506;7.678;2024-02-21T07:22:54;100302.72;;;8.47;96.51
37778;BME280;23615;51.506;7.678;2024-02-21T07:25:19;100298.44;;;8.46;96.92
37778;BME280;23615;51.506;7.678;2024-02-21T07:27:45;100300.25;;;8.39;97.29
37778;BME280;23615;51.506;7.678;2024-02-21T07:30:10;100297.59;;;8.39;97.14
37778;BME280;23615;51.506;7.678;2024-02-21T07:32:36;100305.59;;;8.58;96.93
37778;BME280;23615;51.506;7.678;2024-02-21T07:35:01;100300.28;;;8.52;96.92
37778;BME280;23615;51.506;7.678;2024-02-21T07:37:26;100299.06;;;8.54;97.25
37778;BME280;23615;51.506;7.678;2024-02-21T07:39:52;100292.50;;;8.70;96.43
37778;BME280;23615;51.506;7.678;2024-02-21T07:42:17;100287.59;;;8.60;96.83
37778;BME280;23615;51.506;7.678;2024-02-21T07:44:42;100281.03;;;8.50;98.29
37778;BME280;23615;51.506;7.678;2024-02-21T07:47:07;100276.94;;;8.34;98.46
37778;BME280;23615;51.506;7.678;2024-02-21T07:49:33;100288.41;;;8.61;98.22
37778;BME280;23615;51.506;7.678;2024-02-21T07:52:05;100283.31;;;8.46;99.19
37778;BME280;23615;51.506;7.678;2024-02-21T07:54:30;100276.97;;;8.54;97.73
37778;BME280;23615;51.506;7.678;2024-02-21T07:56:55;100277.38;;;8.51;97.75
37778;BME280;23615;51.506;7.678;2024-02-21T07:59:21;100271.03;;;8.78;96.43
37778;BME280;23615;51.506;7.678;2024-02-21T08:01:46;100273.88;;;8.77;96.83
37778;BME280;23615;51.506;7.678;2024-02-21T08:04:11;100272.44;;;8.68;96.82
37778;BME280;23615;51.506;7.678;2024-02-21T08:06:37;100268.34;;;8.78;98.18
37778;BME280;23615;51.506;7.678;2024-02-21T08:09:02;100257.91;;;8.77;98.04
37778;BME280;23615;51.506;7.678;2024-02-21T08:11:27;100255.44;;;8.95;97.46
37778;BME280;23615;51.506;7.678;2024-02-21T08:13:53;100242.38;;;8.80;97.43
37778;BME280;23615;51.506;7.678;2024-02-21T08:16:18;100247.47;;;8.75;98.33
37778;BME280;23615;51.506;7.678;2024-02-21T08:18:44;100249.75;;;8.72;97.43
37778;BME280;23615;51.506;7.678;2024-02-21T08:21:09;100242.97;;;8.89;97.57
37778;BME280;23615;51.506;7.678;2024-02-21T08:23:35;100243.97;;;8.94;96.97
37778;BME280;23615;51.506;7.678;2024-02-21T08:26:03;100238.06;;;8.99;95.89
37778;BME280;23615;51.506;7.678;2024-02-21T08:28:28;100241.91;;;9.03;96.57
37778;BME280;23615;51.506;7.678;2024-02-21T08:30:54;100242.75;;;8.97;95.33
37778;BME280;23615;51.506;7.678;2024-02-21T08:33:19;100242.97;;;8.95;96.06
37778;BME280;23615;51.506;7.678;2024-02-21T08:35:49;100230.91;;;8.80;96.37
37778;BME280;23615;51.506;7.678;2024-02-21T08:38:14;100234.75;;;9.04;96.97
37778;BME280;23615;51.506;7.678;2024-02-21T08:40:40;100216.59;;;8.81;97.86
37778;BME280;23615;51.506;7.678;2024-02-21T08:43:05;100218.19;;;9.08;96.11
37778;BME280;23615;51.506;7.678;2024-02-21T08:45:30;100208.91;;;9.24;95.06
37778;BME280;23615;51.506;7.678;2024-02-21T08:47:55;100213.38;;;9.30;95.10
37778;BME280;23615;51.506;7.678;2024-02-21T08:50:21;100209.72;;;9.24;95.56
37778;BME280;23615;51.506;7.678;2024-02-21T08:52:46;100210.63;;;8.98;96.37
37778;BME280;23615;51.506;7.678;2024-02-21T08:55:11;100219.56;;;9.24;95.69
37778;BME280;23615;51.506;7.678;2024-02-21T08:57:36;100198.66;;;9.27;95.15
37778;BME280;23615;51.506;7.678;2024-02-21T09:00:05;100193.22;;;8.96;95.76
37778;BME280;23615;51.506;7.678;2024-02-21T09:02:37;100199.09;;;9.18;94.44
37778;BME280;23615;51.506;7.678;2024-02-21T09:05:03;100195.84;;;9.09;95.85
37778;BME280;23615;51.506;7.678;2024-02-21T09:07:30;100195.59;;;9.24;94.85
37778;BME280;23615;51.506;7.678;2024-02-21T09:09:55;100195.75;;;9.29;95.34
37778;BME280;23615;51.506;7.678;2024-02-21T09:12:20;100197.06;;;9.13;95.84
37778;BME280;23615;51.506;7.678;2024-02-21T09:14:46;100199.34;;;9.03;96.21
37778;BME280;23615;51.506;7.678;2024-02-21T09:17:14;100199.09;;;9.11;96.24
37778;BME280;23615;51.506;7.678;2024-02-21T09:19:42;100205.31;;;8.98;97.89
37778;BME280;23615;51.506;7.678;2024-02-21T09:22:07;100197.75;;;8.89;98.45
37778;BME280;23615;51.506;7.678;2024-02-21T09:24:32;100179.50;;;8.92;99.27
37778;BME280;23615;51.506;7.678;2024-02-21T09:26:58;100174.84;;;8.81;99.04
37778;BME280;23615;51.506;7.678;2024-02-21T09:29:23;100169.69;;;8.93;99.43
37778;BME280;23615;51.506;7.678;2024-02-21T09:31:48;100170.50;;;9.00;99.35
37778;BME280;23615;51.506;7.678;2024-02-21T09:34:13;100173.31;;;9.18;99.33
37778;BME280;23615;51.506;7.678;2024-02-21T09:36:39;100166.59;;;9.09;97.68
37778;BME280;23615;51.506;7.678;2024-02-21T09:39:05;100156.16;;;8.94;99.50
37778;BME280;23615;51.506;7.678;2024-02-21T09:41:31;100154.47;;;9.13;98.49
37778;BME280;23615;51.506;7.678;2024-02-21T09:43:59;100147.47;;;9.25;97.80
37778;BME280;23615;51.506;7.678;2024-02-21T09:46:40;100147.50;;;9.19;98.24
37778;BME280;23615;51.506;7.678;2024-02-21T09:49:32;100133.25;;;8.93;98.50
37778;BME280;23615;51.506;7.678;2024-02-21T09:52:00;100143.44;;;9.10;98.26
37778;BME280;23615;51.506;7.678;2024-02-21T09:54:27;100141.13;;;9.26;98.23
37778;BME280;23615;51.506;7.678;2024-02-21T09:56:53;100135.44;;;9.16;96.96
37778;BME280;23615;51.506;7.678;2024-02-21T09:59:18;100142.84;;;9.08;97.51
37778;BME280;23615;51.506;7.678;2024-02-21T10:01:44;100145.06;;;9.17;97.77
37778;BME280;23615;51.506;7.678;2024-02-21T10:04:09;100145.47;;;9.14;96.62
37778;BME280;23615;51.506;7.678;2024-02-21T10:06:35;100147.88;;;9.22;96.09
37778;BME280;23615;51.506;7.678;2024-02-21T10:09:02;100143.00;;;9.19;96.81
37778;BME280;23615;51.506;7.678;2024-02-21T10:11:28;100145.47;;;9.14;96.63
37778;BME280;23615;51.506;7.678;2024-02-21T10:14:08;100143.66;;;9.08;97.49
37778;BME280;23615;51.506;7.678;2024-02-21T10:16:34;100146.44;;;9.20;96.73
37778;BME280;23615;51.506;7.678;2024-02-21T10:18:59;100137.97;;;8.98;98.05
37778;BME280;23615;51.506;7.678;2024-02-21T10:21:25;100138.16;;;8.96;98.01
37778;BME280;23615;51.506;7.678;2024-02-21T10:23:51;100138.94;;;9.04;97.58
37778;BME280;23615;51.506;7.678;2024-02-21T10:26:18;100141.59;;;9.10;98.27
37778;BME280;23615;51.506;7.678;2024-02-21T10:28:43;100140.59;;;9.05;97.71
37778;BME280;23615;51.506;7.678;2024-02-21T10:31:24;100131.81;;;8.97;98.39
37778;BME280;23615;51.506;7.678;2024-02-21T10:34:01;100135.97;;;8.80;98.87
37778;BME280;23615;51.506;7.678;2024-02-21T10:36:30;100128.78;;;8.87;98.68
37778;BME280;23615;51.506;7.678;2024-02-21T10:38:55;100130.41;;;8.88;98.94
37778;BME280;23615;51.506;7.678;2024-02-21T10:41:21;100139.81;;;8.84;98.56
37778;BME280;23615;51.506;7.678;2024-02-21T10:43:52;100128.38;;;8.90;98.48
37778;BME280;23615;51.506;7.678;2024-02-21T10:46:19;100120.22;;;8.79;97.91
37778;BME280;23615;51.506;7.678;2024-02-21T10:48:46;100119.81;;;8.82;98.39
37778;BME280;23615;51.506;7.678;2024-02-21T10:51:16;100114.25;;;8.83;98.27
37778;BME280;23615;51.506;7.678;2024-02-21T10:58:53;100089.09;;;8.79;97.99
37778;BME280;23615;51.506;7.678;2024-02-21T11:01:19;100085.06;;;8.63;98.75
37778;BME280;23615;51.506;7.678;2024-02-21T11:03:46;100078.13;;;8.62;98.44
37778;BME280;23615;51.506;7.678;2024-02-21T11:06:13;100080.09;;;8.80;97.56
37778;BME280;23615;51.506;7.678;2024-02-21T11:08:40;100075.13;;;8.97;97.27
37778;BME280;23615;51.506;7.678;2024-02-21T11:11:05;100077.97;;;8.95;97.97
37778;BME280;23615;51.506;7.678;2024-02-21T11:13:31;100070.19;;;9.00;96.16
37778;BME280;23615;51.506;7.678;2024-02-21T11:16:11;100067.59;;;8.87;97.06
37778;BME280;23615;51.506;7.678;2024-02-21T11:18:37;100057.63;;;9.14;96.07
37778;BME280;23615;51.506;7.678;2024-02-21T11:21:02;100048.66;;;9.02;96.36
37778;BME280;23615;51.506;7.678;2024-02-21T11:23:30;100039.81;;;9.15;94.47
37778;BME280;23615;51.506;7.678;2024-02-21T11:26:08;100034.38;;;9.34;94.71
37778;BME280;23615;51.506;7.678;2024-02-21T11:28:34;100023.06;;;9.39;94.63
37778;BME280;23615;51.506;7.678;2024-02-21T11:31:07;100013.69;;;9.36;94.78
37778;BME280;23615;51.506;7.678;2024-02-21T11:33:34;100015.25;;;9.44;94.43
37778;BME280;23615;51.506;7.678;2024-02-21T11:35:59;99993.91;;;9.51;93.16
37778;BME280;23615;51.506;7.678;2024-02-21T11:38:24;99984.19;;;9.63;92.72
37778;BME280;23615;51.506;7.678;2024-02-21T11:40:50;99972.50;;;9.64;94.62
37778;BME280;23615;51.506;7.678;2024-02-21T11:43:15;99970.19;;;9.67;93.86
37778;BME280;23615;51.506;7.678;2024-02-21T11:45:41;99960.53;;;9.73;92.75
37778;BME280;23615;51.506;7.678;2024-02-21T11:48:07;99949.38;;;9.83;93.46
37778;BME280;23615;51.506;7.678;2024-02-21T11:50:34;99946.06;;;9.62;91.43
37778;BME280;23615;51.506;7.678;2024-02-21T11:53:00;99940.34;;;9.59;91.24
37778;BME280;23615;51.506;7.678;2024-02-21T11:55:25;99933.81;;;9.80;91.09
37778;BME280;23615;51.506;7.678;2024-02-21T11:57:51;99916.84;;;9.56;90.70
37778;BME280;23615;51.506;7.678;2024-02-21T12:00:18;99903.81;;;9.66;89.81
37778;BME280;23615;51.506;7.678;2024-02-21T12:02:45;99909.78;;;9.43;91.04
37778;BME280;23615;51.506;7.678;2024-02-21T12:05:11;99900.97;;;9.43;91.51
37778;BME280;23615;51.506;7.678;2024-02-21T12:07:37;99896.91;;;9.58;91.41
37778;BME280;23615;51.506;7.678;2024-02-21T12:10:10;99893.31;;;9.71;91.55
37778;BME280;23615;51.506;7.678;2024-02-21T12:12:36;99883.59;;;9.58;90.82
37778;BME280;23615;51.506;7.678;2024-02-21T12:15:03;99885.91;;;9.55;90.70
37778;BME280;23615;51.506;7.678;2024-02-21T12:17:33;99879.69;;;9.61;90.54
37778;BME280;23615;51.506;7.678;2024-02-21T12:19:59;99867.72;;;9.70;89.97
37778;BME280;23615;51.506;7.678;2024-02-21T12:22:25;99851.03;;;9.74;88.93
37778;BME280;23615;51.506;7.678;2024-02-21T12:24:50;99841.16;;;9.63;89.73
37778;BME280;23615;51.506;7.678;2024-02-21T12:27:16;99825.16;;;9.63;90.23
37778;BME280;23615;51.506;7.678;2024-02-21T12:29:41;99816.19;;;9.76;90.87
37778;BME280;23615;51.506;7.678;2024-02-21T12:32:06;99817.38;;;9.98;91.64
37778;BME280;23615;51.506;7.678;2024-02-21T12:34:31;99813.56;;;10.06;89.65
37778;BME280;23615;51.506;7.678;2024-02-21T12:36:58;99803.84;;;10.11;90.88
37778;BME280;23615;51.506;7.678;2024-02-21T12:39:24;99796.81;;;10.17;90.39
37778;BME280;23615;51.506;7.678;2024-02-21T12:41:49;99781.34;;;10.26;89.17
37778;BME280;23615;51.506;7.678;2024-02-21T12:44:15;99775.50;;;10.17;88.29
37778;BME280;23615;51.506;7.678;2024-02-21T12:46:42;99765.47;;;10.19;88.85
37778;BME280;23615;51.506;7.678;2024-02-21T12:49:07;99753.19;;;10.30;88.31
37778;BME280;23615;51.506;7.678;2024-02-21T12:51:33;99745.00;;;10.13;88.70
37778;BME280;23615;51.506;7.678;2024-02-21T12:53:59;99740.78;;;10.05;89.47
37778;BME280;23615;51.506;7.678;2024-02-21T12:56:25;99723.88;;;10.11;88.57